createdAt,value
2023-03-02T00:00:49.696Z,34.28
2023-03-02T00:03:53.803Z,34.36
2023-03-02T00:06:57.959Z,33.66
2023-03-02T00:10:01.868Z,33.95
2023-03-02T00:13:08.956Z,34.22
2023-03-02T00:16:12.897Z,34.00
2023-03-02T00:19:17.006Z,33.83
2023-03-02T00:22:21.001Z,34.07
2023-03-02T00:25:25.216Z,33.74
2023-03-02T00:28:29.242Z,33.55
2023-03-02T00:31:33.334Z,34.52
2023-03-02T00:34:37.125Z,34.94
2023-03-02T00:37:41.259Z,33.81
2023-03-02T00:40:45.397Z,35.27
2023-03-02T00:43:49.582Z,35.01
2023-03-02T00:46:53.678Z,34.35
2023-03-02T00:49:57.699Z,34.69
2023-03-02T00:53:01.942Z,35.51
2023-03-02T00:56:05.933Z,36.05
2023-03-02T00:59:09.784Z,35.67
2023-03-02T01:02:14.013Z,35.61
2023-03-02T01:05:18.185Z,34.87
2023-03-02T01:08:21.942Z,35.42
2023-03-02T01:11:25.999Z,34.90
2023-03-02T01:14:29.754Z,35.61
2023-03-02T01:17:33.754Z,36.74
2023-03-02T01:20:38.531Z,35.17
2023-03-02T01:23:42.697Z,35.57
2023-03-02T01:26:46.812Z,34.69
2023-03-02T01:29:51.763Z,34.62
2023-03-02T01:32:55.381Z,37.13
2023-03-02T01:35:59.605Z,36.31
2023-03-02T01:39:04.073Z,35.71
2023-03-02T01:42:07.708Z,36.33
2023-03-02T01:45:11.808Z,35.58
2023-03-02T01:48:15.822Z,36.01
2023-03-02T01:51:19.902Z,35.90
2023-03-02T01:54:23.758Z,35.23
2023-03-02T01:57:27.501Z,34.88
2023-03-02T02:00:31.508Z,34.69
2023-03-02T02:03:35.942Z,34.47
2023-03-02T02:06:39.966Z,35.03
2023-03-02T02:09:43.714Z,35.41
2023-03-02T02:12:47.754Z,35.61
2023-03-02T02:15:54.543Z,35.54
2023-03-02T02:19:01.054Z,35.98
2023-03-02T02:22:05.239Z,35.79
2023-03-02T02:25:09.365Z,35.29
2023-03-02T02:28:13.182Z,35.79
2023-03-02T02:31:19.165Z,36.16
2023-03-02T02:34:26.453Z,36.50
2023-03-02T02:37:30.338Z,35.49
2023-03-02T02:40:34.521Z,36.14
2023-03-02T02:43:38.575Z,37.01
2023-03-02T02:46:42.423Z,36.07
2023-03-02T02:49:46.380Z,36.00
2023-03-02T02:52:50.689Z,37.02
2023-03-02T02:55:55.179Z,36.78
2023-03-02T02:58:59.044Z,37.38
2023-03-02T03:02:02.904Z,35.53
2023-03-02T03:05:06.995Z,36.33
2023-03-02T03:08:11.187Z,35.51
2023-03-02T03:11:15.116Z,35.67
2023-03-02T03:14:19.128Z,36.22
2023-03-02T03:17:26.035Z,35.12
2023-03-02T03:20:30.052Z,35.29
2023-03-02T03:23:37.108Z,34.87
2023-03-02T03:26:41.240Z,35.02
2023-03-02T03:29:45.705Z,34.28
2023-03-02T03:32:49.761Z,35.32
2023-03-02T03:35:53.674Z,36.36
2023-03-02T03:38:57.606Z,34.81
2023-03-02T03:42:01.860Z,34.59
2023-03-02T03:45:06.152Z,34.68
2023-03-02T03:48:09.790Z,35.36
2023-03-02T03:51:13.798Z,35.85
2023-03-02T03:54:19.120Z,35.69
2023-03-02T03:57:23.213Z,36.28
2023-03-02T04:00:27.398Z,34.97
2023-03-02T04:03:31.535Z,36.12
2023-03-02T04:06:35.714Z,37.11
2023-03-02T04:09:39.987Z,37.31
2023-03-02T04:12:44.274Z,36.71
2023-03-02T04:15:48.434Z,36.81
2023-03-02T04:18:52.197Z,36.20
2023-03-02T04:21:55.740Z,36.73
2023-03-02T04:24:59.831Z,36.82
2023-03-02T04:28:03.961Z,36.97
2023-03-02T04:31:08.076Z,37.20
2023-03-02T04:34:12.013Z,36.25
2023-03-02T04:37:16.216Z,36.50
2023-03-02T04:40:20.429Z,37.38
2023-03-02T04:43:24.586Z,37.74
2023-03-02T04:46:28.869Z,38.08
2023-03-02T04:49:32.904Z,37.79
2023-03-02T04:52:37.013Z,37.23
2023-03-02T04:55:40.919Z,38.18
2023-03-02T04:58:45.179Z,37.06
2023-03-02T05:01:49.064Z,38.11
2023-03-02T05:04:53.403Z,37.48
2023-03-02T05:07:57.584Z,36.88
2023-03-02T05:11:01.381Z,37.42
2023-03-02T05:14:05.538Z,37.28
2023-03-02T05:17:09.624Z,38.78
2023-03-02T05:20:13.457Z,39.57
2023-03-02T05:23:17.420Z,39.16
2023-03-02T05:26:22.731Z,36.95
2023-03-02T05:29:26.580Z,37.11
2023-03-02T05:32:30.805Z,36.67
2023-03-02T05:35:35.218Z,36.20
2023-03-02T05:38:39.257Z,36.53
2023-03-02T05:41:43.265Z,36.17
2023-03-02T05:44:47.136Z,36.22
2023-03-02T05:47:53.368Z,35.67
2023-03-02T05:50:58.766Z,36.13
2023-03-02T05:54:03.297Z,35.76
2023-03-02T05:57:07.730Z,37.53
2023-03-02T06:00:11.441Z,36.38
2023-03-02T06:03:15.295Z,35.75
2023-03-02T06:06:19.460Z,36.43
2023-03-02T06:09:23.740Z,37.27
2023-03-02T06:12:27.675Z,36.55
2023-03-02T06:15:31.644Z,36.25
2023-03-02T06:18:35.698Z,36.18
2023-03-02T06:21:39.537Z,35.91
2023-03-02T06:24:43.653Z,37.43
2023-03-02T06:27:47.666Z,37.01
2023-03-02T06:30:51.753Z,37.06
2023-03-02T06:33:55.895Z,37.20
2023-03-02T06:37:04.198Z,36.86
2023-03-02T06:40:08.552Z,36.47
2023-03-02T06:43:15.132Z,36.53
2023-03-02T06:46:19.399Z,36.39
2023-03-02T06:49:23.680Z,37.42
2023-03-02T06:52:27.475Z,35.94
2023-03-02T06:55:31.330Z,36.42
2023-03-02T06:58:35.201Z,36.20
2023-03-02T07:01:39.193Z,36.80
2023-03-02T07:04:43.323Z,36.51
2023-03-02T07:07:47.480Z,37.21
2023-03-02T07:10:51.729Z,38.04
2023-03-02T07:13:55.853Z,36.84
2023-03-02T07:17:02.016Z,37.42
2023-03-02T07:20:07.452Z,37.82
2023-03-02T07:23:11.597Z,37.75
2023-03-02T07:26:15.631Z,37.53
2023-03-02T07:29:19.768Z,37.30
2023-03-02T07:32:23.711Z,37.18
2023-03-02T07:35:38.376Z,37.74
2023-03-02T07:38:42.653Z,36.87
2023-03-02T07:41:46.602Z,36.93
2023-03-02T07:44:50.960Z,37.73
2023-03-02T07:47:54.637Z,36.55
2023-03-02T07:50:58.836Z,36.26
2023-03-02T07:54:02.574Z,37.53
2023-03-02T07:57:06.537Z,35.89
2023-03-02T08:00:10.202Z,36.92
2023-03-02T08:03:14.426Z,37.90
2023-03-02T08:06:18.540Z,36.91
2023-03-02T08:09:22.206Z,37.34
2023-03-02T08:12:26.141Z,37.22
2023-03-02T08:15:31.459Z,37.68
2023-03-02T08:18:35.722Z,37.23
2023-03-02T08:21:39.885Z,37.57
2023-03-02T08:24:43.698Z,37.34
2023-03-02T08:27:47.814Z,39.54
2023-03-02T08:30:52.792Z,38.21
2023-03-02T08:33:57.063Z,38.84
2023-03-02T08:37:02.148Z,38.18
2023-03-02T08:40:06.466Z,39.03
2023-03-02T08:43:10.306Z,37.68
2023-03-02T08:46:14.315Z,37.50
2023-03-02T08:49:20.825Z,38.68
2023-03-02T08:52:27.097Z,38.91
2023-03-02T08:55:31.569Z,38.25
2023-03-02T08:58:35.855Z,38.74
2023-03-02T09:01:39.888Z,36.94
2023-03-02T09:04:43.810Z,37.43
2023-03-02T09:07:47.674Z,37.64
2023-03-02T09:10:51.536Z,37.34
2023-03-02T09:13:55.428Z,37.85
2023-03-02T09:17:02.083Z,37.60
2023-03-02T09:20:06.168Z,37.45
2023-03-02T09:23:10.494Z,37.28
2023-03-02T09:26:14.607Z,37.49
2023-03-02T09:29:20.034Z,37.01
2023-03-02T09:32:25.616Z,37.82
2023-03-02T09:35:30.448Z,36.83
2023-03-02T09:38:34.576Z,37.09
2023-03-02T09:41:38.717Z,38.05
2023-03-02T09:44:42.500Z,37.66
2023-03-02T09:47:46.415Z,37.31
2023-03-02T09:50:50.227Z,37.05
2023-03-02T09:53:54.204Z,35.27
2023-03-02T09:57:02.350Z,36.44
2023-03-02T10:00:18.105Z,37.29
2023-03-02T10:03:22.837Z,37.01
2023-03-02T10:06:26.793Z,36.94
2023-03-02T10:09:30.577Z,36.49
2023-03-02T10:12:34.884Z,37.52
2023-03-02T10:15:40.744Z,36.89
2023-03-02T10:18:47.176Z,35.99
2023-03-02T10:21:51.242Z,34.43
2023-03-02T10:24:55.347Z,35.12
2023-03-02T10:27:59.340Z,36.71
2023-03-02T10:31:52.208Z,37.13
2023-03-02T10:34:28.093Z,36.23
2023-03-02T10:37:32.323Z,36.76
2023-03-02T10:40:35.895Z,36.91
2023-03-02T10:43:40.026Z,36.62
2023-03-02T10:46:44.418Z,37.43
2023-03-02T10:49:48.649Z,36.19
2023-03-02T10:53:00.251Z,38.09
2023-03-02T10:56:05.111Z,36.49
2023-03-02T10:59:09.171Z,36.51
2023-03-02T11:02:16.362Z,36.57
2023-03-02T11:05:20.072Z,36.02
2023-03-02T11:08:24.208Z,36.54
2023-03-02T11:11:28.393Z,36.84
2023-03-02T11:14:32.601Z,35.81
2023-03-02T11:17:36.366Z,36.50
2023-03-02T11:20:40.174Z,36.12
2023-03-02T11:23:44.302Z,36.53
2023-03-02T11:26:48.714Z,36.75
2023-03-02T11:29:52.326Z,37.06
2023-03-02T11:32:56.319Z,36.51
2023-03-02T11:36:22.601Z,37.87
2023-03-02T11:39:24.846Z,37.18
2023-03-02T11:42:29.349Z,37.14
2023-03-02T11:45:33.921Z,37.85
2023-03-02T11:48:37.792Z,37.62
2023-03-02T11:55:08.002Z,37.37
2023-03-02T11:58:11.691Z,37.18
2023-03-02T12:01:15.526Z,37.02
2023-03-02T12:04:19.750Z,36.91
2023-03-02T12:07:23.717Z,36.40
2023-03-02T12:10:27.876Z,37.71
2023-03-02T12:13:31.726Z,38.07
2023-03-02T12:16:36.359Z,37.46
2023-03-02T12:19:40.923Z,37.45
2023-03-02T12:22:46.260Z,36.88
2023-03-02T12:25:50.348Z,37.19
2023-03-02T12:28:54.141Z,36.70
2023-03-02T12:31:58.268Z,36.28
2023-03-02T12:35:02.427Z,36.24
2023-03-02T12:38:06.476Z,35.86
2023-03-02T12:41:10.383Z,36.39
2023-03-02T12:44:14.593Z,36.45
2023-03-02T12:47:20.433Z,36.94
2023-03-02T12:50:25.020Z,37.79
2023-03-02T12:53:29.020Z,38.55
2023-03-02T12:56:32.727Z,38.13
2023-03-02T12:59:37.078Z,38.45
2023-03-02T13:02:41.045Z,37.89
2023-03-02T13:05:45.277Z,37.92
2023-03-02T13:08:49.457Z,38.36
2023-03-02T13:11:53.480Z,38.43
2023-03-02T13:14:57.530Z,38.48
2023-03-02T13:18:01.663Z,39.01
2023-03-02T13:21:05.853Z,36.62
2023-03-02T13:24:10.192Z,38.94
2023-03-02T13:27:15.031Z,37.42
2023-03-02T13:30:18.920Z,38.94
2023-03-02T13:33:22.899Z,38.48
2023-03-02T13:36:27.324Z,38.02
2023-03-02T13:39:31.455Z,37.95
2023-03-02T13:42:35.665Z,37.37
2023-03-02T13:45:39.772Z,37.57
2023-03-02T13:48:47.852Z,37.12
2023-03-02T13:51:55.473Z,38.40
2023-03-02T13:54:59.643Z,38.77
2023-03-02T13:58:03.780Z,38.19
2023-03-02T14:01:07.712Z,38.28
2023-03-02T14:04:12.062Z,38.83
2023-03-02T14:07:16.505Z,38.96
2023-03-02T14:10:20.305Z,38.41
2023-03-02T14:13:24.439Z,38.44
2023-03-02T14:16:28.532Z,38.43
2023-03-02T14:19:32.659Z,37.29
2023-03-02T14:22:37.067Z,37.85
2023-03-02T14:25:41.335Z,37.64
2023-03-02T14:28:47.424Z,37.53
2023-03-02T14:31:55.122Z,37.60
2023-03-02T14:34:59.981Z,37.77
2023-03-02T14:38:03.594Z,37.05
2023-03-02T14:41:10.336Z,37.74
2023-03-02T14:44:15.729Z,38.93
2023-03-02T14:47:19.916Z,38.09
2023-03-02T14:50:23.827Z,37.66
2023-03-02T14:53:27.930Z,38.60
2023-03-02T14:56:32.039Z,38.45
2023-03-02T14:59:36.255Z,38.55
2023-03-02T15:02:40.634Z,38.77
2023-03-02T15:05:58.922Z,39.24
2023-03-02T15:09:04.188Z,39.30
2023-03-02T15:12:08.080Z,39.49
2023-03-02T15:15:12.593Z,38.68
2023-03-02T15:18:16.394Z,37.67
2023-03-02T15:21:20.455Z,38.01
2023-03-02T15:24:24.510Z,38.05
2023-03-02T15:27:28.503Z,38.04
2023-03-02T15:30:32.511Z,39.22
2023-03-02T15:33:36.650Z,38.91
2023-03-02T15:36:40.246Z,39.62
2023-03-02T15:39:44.382Z,37.92
2023-03-02T15:42:48.627Z,38.70
2023-03-02T15:45:52.395Z,39.79
2023-03-02T15:48:56.273Z,38.28
2023-03-02T15:52:00.421Z,39.65
2023-03-02T15:55:04.502Z,39.07
2023-03-02T15:58:08.804Z,37.80
2023-03-02T16:01:12.906Z,38.31
2023-03-02T16:04:17.062Z,39.47
2023-03-02T16:07:21.455Z,39.19
2023-03-02T16:10:25.222Z,39.53
2023-03-02T16:13:29.299Z,38.96
2023-03-02T16:16:33.420Z,38.47
2023-03-02T16:19:41.415Z,39.35
2023-03-02T16:22:45.542Z,38.48
2023-03-02T16:25:49.628Z,40.68
2023-03-02T16:28:53.848Z,39.32
2023-03-02T16:31:58.090Z,38.93
2023-03-02T16:35:02.016Z,38.72
2023-03-02T16:38:05.815Z,38.37
2023-03-02T16:41:09.737Z,39.62
2023-03-02T16:44:13.804Z,40.54
2023-03-02T16:47:21.037Z,40.87
2023-03-02T16:50:25.100Z,41.29
2023-03-02T16:53:28.950Z,39.26
2023-03-02T16:56:33.058Z,39.14
2023-03-02T16:59:37.242Z,38.42
2023-03-02T17:02:41.440Z,38.31
2023-03-02T17:05:45.410Z,38.95
2023-03-02T17:08:49.282Z,39.04
2023-03-02T17:11:53.474Z,38.78
2023-03-02T17:15:01.828Z,38.29
2023-03-02T17:18:06.047Z,39.27
2023-03-02T17:21:13.494Z,39.88
2023-03-02T17:24:17.875Z,40.58
2023-03-02T17:27:25.477Z,41.67
2023-03-02T17:30:30.033Z,40.41
2023-03-02T17:33:34.145Z,40.00
2023-03-02T17:36:38.314Z,39.33
2023-03-02T17:39:42.299Z,40.69
2023-03-02T17:42:46.181Z,40.49
2023-03-02T17:45:50.510Z,39.54
2023-03-02T17:48:54.370Z,39.67
2023-03-02T17:52:21.193Z,40.42
2023-03-02T17:55:23.255Z,40.04
2023-03-02T17:58:33.207Z,40.39
2023-03-02T18:01:48.386Z,39.68
2023-03-02T18:04:54.507Z,39.75
2023-03-02T18:07:59.751Z,40.06
2023-03-02T18:11:13.906Z,40.09
2023-03-02T18:14:20.090Z,40.26
2023-03-02T18:17:24.029Z,41.44
2023-03-02T18:20:28.165Z,41.90
2023-03-02T18:23:32.010Z,41.38
2023-03-02T18:26:36.050Z,40.74
2023-03-02T18:29:39.925Z,40.94
2023-03-02T18:32:43.939Z,41.12
2023-03-02T18:35:47.738Z,41.84
2023-03-02T18:38:51.843Z,40.51
2023-03-02T18:41:55.886Z,41.27
2023-03-02T18:45:09.028Z,41.67
2023-03-02T18:48:15.074Z,40.75
2023-03-02T18:51:19.208Z,40.97
2023-03-02T18:54:23.107Z,40.95
2023-03-02T18:57:27.138Z,41.55
2023-03-02T19:00:30.854Z,41.08
2023-03-02T19:03:37.000Z,42.44
2023-03-02T19:06:41.935Z,41.98
2023-03-02T19:09:45.958Z,42.40
2023-03-02T19:12:49.646Z,41.96
2023-03-02T19:15:55.771Z,42.98
2023-03-02T19:18:59.812Z,42.61
2023-03-02T19:22:06.616Z,42.24
2023-03-02T19:25:15.141Z,42.31
2023-03-02T19:28:19.711Z,43.06
2023-03-02T19:31:25.132Z,43.68
2023-03-02T19:34:29.230Z,43.65
2023-03-02T19:37:33.265Z,43.70
2023-03-02T19:40:37.134Z,44.25
2023-03-02T19:43:41.224Z,43.52
2023-03-02T19:46:45.348Z,44.11
2023-03-02T19:49:49.608Z,44.35
2023-03-02T19:52:53.700Z,42.87
2023-03-02T19:55:59.499Z,43.48
2023-03-02T19:59:03.410Z,43.84
2023-03-02T20:02:07.705Z,44.29
2023-03-02T20:05:11.926Z,43.44
2023-03-02T20:08:15.700Z,44.76
2023-03-02T20:11:19.666Z,43.53
2023-03-02T20:14:33.369Z,44.53
2023-03-02T20:17:37.926Z,44.47
2023-03-02T20:20:44.938Z,43.91
2023-03-02T20:23:49.136Z,45.44
2023-03-02T20:26:53.321Z,45.14
2023-03-02T20:29:57.325Z,44.80
2023-03-02T20:33:01.444Z,45.80
2023-03-02T20:36:05.152Z,45.52
2023-03-02T20:39:13.312Z,45.04
2023-03-02T20:42:17.652Z,46.14
2023-03-02T20:45:22.892Z,46.77
2023-03-02T20:48:30.027Z,46.26
2023-03-02T20:51:34.176Z,45.46
2023-03-02T20:54:39.093Z,46.11
2023-03-02T20:57:43.217Z,46.10
2023-03-02T21:00:48.663Z,46.73
2023-03-02T21:03:52.852Z,45.02
2023-03-02T21:06:57.016Z,45.35
2023-03-02T21:10:01.123Z,46.15
2023-03-02T21:13:04.870Z,45.06
2023-03-02T21:16:19.262Z,46.07
2023-03-02T21:19:23.263Z,46.81
2023-03-02T21:22:27.422Z,44.30
2023-03-02T21:25:36.030Z,47.40
2023-03-02T21:29:10.640Z,46.48
2023-03-02T21:32:04.585Z,46.62
2023-03-02T21:35:08.765Z,46.31
2023-03-02T21:38:13.220Z,45.85
2023-03-02T21:41:18.423Z,44.95
2023-03-02T21:44:23.466Z,44.74
2023-03-02T21:47:27.728Z,45.45
2023-03-02T21:50:32.438Z,43.70
2023-03-02T21:53:36.528Z,44.09
2023-03-02T21:56:40.534Z,44.83
2023-03-02T21:59:44.731Z,45.92
2023-03-02T22:02:48.318Z,45.63
2023-03-02T22:05:52.580Z,45.84
2023-03-02T22:08:56.764Z,46.04
2023-03-02T22:12:23.073Z,46.13
2023-03-02T22:15:27.331Z,47.38
2023-03-02T22:18:36.266Z,45.33
2023-03-02T22:21:40.602Z,45.90
2023-03-02T22:24:44.282Z,47.21
2023-03-02T22:27:48.295Z,46.16
2023-03-02T22:30:52.520Z,47.72
2023-03-02T22:33:56.431Z,47.18
2023-03-02T22:37:00.752Z,47.32
2023-03-02T22:40:05.326Z,46.52
2023-03-02T22:43:09.400Z,45.56
2023-03-02T22:46:13.816Z,47.10
2023-03-02T22:49:18.088Z,45.35
2023-03-02T22:52:22.533Z,45.30
2023-03-02T22:55:26.853Z,45.96
2023-03-02T22:58:30.687Z,46.15
2023-03-02T23:01:34.782Z,45.42
2023-03-02T23:04:38.754Z,46.96
2023-03-02T23:07:44.301Z,45.31
2023-03-02T23:10:49.438Z,46.91
2023-03-02T23:13:53.424Z,45.81
2023-03-02T23:16:57.834Z,44.38
2023-03-02T23:20:03.702Z,46.19
2023-03-02T23:23:10.384Z,45.71
2023-03-02T23:26:14.562Z,47.07
2023-03-02T23:29:18.497Z,45.94
2023-03-02T23:32:22.643Z,47.23
2023-03-02T23:35:27.055Z,47.65
2023-03-02T23:38:31.588Z,46.34
2023-03-02T23:41:35.636Z,46.00
2023-03-02T23:44:41.001Z,45.78
2023-03-02T23:47:46.360Z,45.67
2023-03-02T23:50:50.551Z,46.40
2023-03-02T23:53:54.425Z,46.04
2023-03-02T23:56:58.337Z,46.52
